Time;durP1;ratioP1;P1;durP2;ratioP2;P2;SDS_P1;SDS_P2;PMS_P1;PMS_P2;Temp;Humidity;BMP_temperature;BMP_pressure;BME280_temperature;BME280_humidity;BME280_pressure;Samples;Min_cycle;Max_cycle;Signal;HPM_P1;HPM_P2
2022/09/25 00:01:10;;;;;;;4.53;1.33;;;18.70;90.50;;;;;;5035606;28;20041;-66
2022/09/25 00:03:38;;;;;;;3.60;1.10;;;18.90;88.50;;;;;;5031644;28;20025;-67
2022/09/25 00:06:12;;;;;;;1.85;1.10;;;19.00;80.80;;;;;;5034684;28;20041;-68
2022/09/25 00:08:39;;;;;;;4.57;1.90;;;19.10;83.70;;;;;;5027952;28;20026;-67
2022/09/25 00:11:13;;;;;;;5.05;2.25;;;19.30;88.00;;;;;;5028968;28;20029;-67
2022/09/25 00:13:42;;;;;;;6.70;2.50;;;19.50;79.20;;;;;;5028633;28;20053;-68
2022/09/25 00:16:16;;;;;;;5.22;2.90;;;19.60;85.60;;;;;;5030216;28;20381;-66
2022/09/25 00:21:32;;;;;;;4.38;2.17;;;19.80;82.90;;;;;;5034873;28;20087;-68
2022/09/25 00:24:02;;;;;;;3.60;2.22;;;20.10;85.40;;;;;;5028799;28;20017;-67
2022/09/25 00:26:32;;;;;;;5.30;2.60;;;20.20;80.40;;;;;;5028717;28;20044;-67
2022/09/25 00:29:00;;;;;;;4.90;2.50;;;20.30;80.90;;;;;;5033745;28;20418;-67
2022/09/25 00:31:28;;;;;;;10.15;4.60;;;20.40;82.90;;;;;;5030587;28;20029;-69
2022/09/25 00:34:01;;;;;;;8.63;3.38;;;20.30;72.60;;;;;;5023274;28;20585;-67
2022/09/25 00:36:29;;;;;;;6.15;3.13;;;20.20;81.50;;;;;;5028725;28;20418;-69
2022/09/25 00:38:58;;;;;;;7.13;3.08;;;20.20;83.00;;;;;;5028259;28;20040;-68
2022/09/25 00:41:27;;;;;;;4.45;2.53;;;20.30;79.40;;;;;;5029303;28;20020;-69
2022/09/25 00:43:56;;;;;;;3.97;2.40;;;20.30;74.80;;;;;;5029838;28;20478;-69
2022/09/25 00:46:28;;;;;;;2.92;1.65;;;20.40;78.70;;;;;;5026568;28;20056;-67
2022/09/25 00:48:59;;;;;;;6.35;1.70;;;20.40;74.10;;;;;;5024700;28;20022;-68
2022/09/25 00:51:40;;;;;;;1.88;1.35;;;20.40;70.60;;;;;;5027608;28;20033;-68
2022/09/25 00:54:15;;;;;;;2.30;1.33;;;20.60;77.80;;;;;;5028686;28;20022;-68
2022/09/25 00:56:47;;;;;;;2.15;1.10;;;20.60;69.00;;;;;;5029126;28;20034;-67
2022/09/25 00:59:27;;;;;;;2.30;1.25;;;20.80;71.80;;;;;;5028750;28;20030;-69
2022/09/25 01:01:55;;;;;;;1.92;0.95;;;21.00;70.10;;;;;;5027102;28;20025;-67
2022/09/25 01:04:27;;;;;;;2.35;1.30;;;21.10;67.90;;;;;;5027206;28;20132;-68
2022/09/25 01:06:55;;;;;;;2.33;1.20;;;21.20;68.50;;;;;;5017366;28;20061;-68
2022/09/25 01:09:23;;;;;;;4.40;1.33;;;21.40;74.80;;;;;;5025393;28;20028;-68
2022/09/25 01:11:51;;;;;;;3.65;1.55;;;21.30;70.10;;;;;;5031418;28;20155;-68
2022/09/25 01:14:18;;;;;;;2.40;1.52;;;21.40;71.30;;;;;;5033002;28;20021;-66
2022/09/25 01:16:58;;;;;;;1.77;1.13;;;21.40;66.50;;;;;;5024440;28;20037;-66
2022/09/25 01:19:44;;;;;;;2.00;1.30;;;21.50;75.90;;;;;;5033053;28;20025;-67
2022/09/25 01:22:27;;;;;;;1.80;0.93;;;21.70;69.50;;;;;;5025880;28;20040;-67
2022/09/25 01:25:29;;;;;;;2.50;1.20;;;21.80;64.70;;;;;;5025378;28;20021;-66
2022/09/25 01:28:14;;;;;;;4.63;1.50;;;22.00;65.30;;;;;;4980768;28;20049;-68
2022/09/25 01:30:48;;;;;;;4.03;1.40;;;21.90;65.40;;;;;;5014713;28;20364;-67
2022/09/25 01:33:40;;;;;;;2.45;0.90;;;22.00;69.70;;;;;;5032689;28;20586;-69
2022/09/25 01:36:35;;;;;;;1.35;0.90;;;22.20;62.40;;;;;;5041638;28;20037;-69
2022/09/25 01:39:11;;;;;;;2.65;0.95;;;22.30;65.20;;;;;;5026333;28;20393;-67
2022/09/25 01:41:49;;;;;;;3.38;1.25;;;22.40;63.50;;;;;;5032242;28;20387;-68
2022/09/25 01:44:29;;;;;;;3.28;1.10;;;22.40;61.90;;;;;;5027068;28;20044;-68
2022/09/25 01:47:05;;;;;;;2.17;0.90;;;22.30;60.60;;;;;;5024577;28;20044;-67
2022/09/25 01:49:41;;;;;;;1.40;1.00;;;22.40;63.30;;;;;;5033705;28;20037;-69
2022/09/25 01:52:16;;;;;;;2.95;1.10;;;22.50;57.80;;;;;;5035530;28;20120;-69
2022/09/25 01:54:52;;;;;;;2.05;1.05;;;22.60;60.20;;;;;;5029071;28;20033;-68
2022/09/25 01:57:25;;;;;;;2.15;1.10;;;22.80;54.70;;;;;;5036452;28;20026;-69
2022/09/25 01:59:59;;;;;;;3.05;0.90;;;22.80;59.20;;;;;;5044242;28;20017;-71
2022/09/25 02:02:34;;;;;;;2.75;1.50;;;22.70;55.70;;;;;;5038671;28;20037;-71
2022/09/25 02:05:10;;;;;;;2.00;0.95;;;22.30;55.50;;;;;;5033621;28;20025;-69
2022/09/25 02:07:46;;;;;;;2.45;1.35;;;22.40;65.70;;;;;;5030096;28;20048;-70
2022/09/25 02:10:34;;;;;;;2.25;1.10;;;22.60;64.60;;;;;;5038077;28;20055;-68
2022/09/25 02:13:12;;;;;;;3.95;1.30;;;22.80;53.80;;;;;;5027417;28;20017;-69
2022/09/25 02:15:47;;;;;;;2.38;1.33;;;23.00;60.60;;;;;;5034283;28;20034;-68
2022/09/25 02:21:26;;;;;;;2.38;1.27;;;23.30;55.40;;;;;;5027686;28;20079;-68
2022/09/25 02:24:13;;;;;;;1.40;1.08;;;23.10;54.30;;;;;;5023307;28;20029;-69
2022/09/25 02:26:41;;;;;;;3.25;1.83;;;23.30;56.10;;;;;;5026072;28;20151;-66
2022/09/25 02:29:09;;;;;;;5.03;1.55;;;23.60;56.60;;;;;;5030866;28;20029;-66
2022/09/25 02:31:41;;;;;;;2.55;1.90;;;23.60;57.80;;;;;;5027144;28;20307;-65
2022/09/25 02:34:10;;;;;;;3.80;1.38;;;23.70;57.60;;;;;;5036593;28;20053;-67
2022/09/25 02:36:37;;;;;;;2.97;1.00;;;23.90;57.90;;;;;;5028087;28;20065;-68
2022/09/25 02:39:07;;;;;;;1.60;0.90;;;23.90;53.80;;;;;;5027593;28;20017;-66
2022/09/25 02:41:47;;;;;;;2.92;1.27;;;23.80;51.90;;;;;;5031312;28;20044;-66
2022/09/25 02:44:24;;;;;;;2.65;1.60;;;23.90;57.60;;;;;;5028443;28;20116;-67
2022/09/25 02:46:58;;;;;;;2.70;1.05;;;24.00;55.70;;;;;;5028521;28;20029;-68
2022/09/25 02:49:34;;;;;;;2.08;0.80;;;24.20;53.50;;;;;;5036298;28;20366;-67
2022/09/25 02:52:05;;;;;;;5.65;2.10;;;23.90;51.70;;;;;;5027396;28;20135;-67
2022/09/25 02:54:47;;;;;;;2.10;1.20;;;24.00;56.30;;;;;;5019222;28;20017;-65
2022/09/25 02:57:46;;;;;;;2.53;1.10;;;24.00;54.10;;;;;;5027785;28;20013;-67
2022/09/25 03:00:14;;;;;;;1.70;0.93;;;24.10;48.90;;;;;;5023443;28;20034;-68
2022/09/25 03:02:42;;;;;;;1.25;0.93;;;24.00;52.10;;;;;;5027446;28;20028;-68
2022/09/25 03:05:13;;;;;;;2.58;1.17;;;23.70;49.20;;;;;;5021479;28;20025;-69
2022/09/25 03:10:28;;;;;;;1.02;0.70;;;23.60;48.60;;;;;;5026469;28;22098;-69
2022/09/25 03:12:55;;;;;;;1.40;0.88;;;23.30;51.50;;;;;;5022994;28;20033;-66
2022/09/25 03:15:23;;;;;;;1.73;0.63;;;23.50;52.80;;;;;;5027855;28;20070;-66
2022/09/25 03:17:51;;;;;;;4.45;1.15;;;23.40;54.70;;;;;;5026308;28;20025;-67
2022/09/25 03:20:18;;;;;;;2.72;0.85;;;23.60;53.50;;;;;;5026357;28;20029;-67
2022/09/25 03:22:45;;;;;;;2.05;1.00;;;23.50;47.00;;;;;;5037607;28;20038;-67
2022/09/25 03:25:15;;;;;;;2.28;0.90;;;23.60;50.60;;;;;;5025755;28;20863;-68
2022/09/25 03:27:42;;;;;;;4.90;0.93;;;23.70;52.90;;;;;;5028339;28;20033;-65
2022/09/25 03:30:09;;;;;;;1.40;0.82;;;23.80;52.70;;;;;;5034085;28;20021;-64
2022/09/25 03:32:37;;;;;;;1.77;0.90;;;23.90;48.60;;;;;;5033311;28;20105;-67
2022/09/25 03:35:05;;;;;;;2.67;1.05;;;23.90;53.40;;;;;;5027956;28;20109;-67
2022/09/25 03:37:32;;;;;;;1.92;0.70;;;24.00;52.60;;;;;;5029507;28;20056;-66
2022/09/25 03:40:00;;;;;;;3.50;2.10;;;24.30;53.30;;;;;;5039001;28;20020;-67
2022/09/25 03:42:27;;;;;;;2.05;0.73;;;24.50;52.00;;;;;;5031123;28;20112;-66
2022/09/25 03:44:54;;;;;;;1.23;0.70;;;24.50;47.30;;;;;;5031999;28;20028;-67
2022/09/25 03:47:21;;;;;;;2.83;0.95;;;24.10;46.70;;;;;;5030351;28;20029;-66
2022/09/25 03:49:49;;;;;;;2.15;0.90;;;23.90;49.00;;;;;;5033883;28;20025;-65
2022/09/25 03:52:16;;;;;;;1.88;0.70;;;23.80;46.70;;;;;;5027913;28;20032;-65
2022/09/25 03:54:43;;;;;;;2.28;0.98;;;23.60;47.80;;;;;;5031593;28;20025;-64
2022/09/25 03:57:11;;;;;;;1.08;0.60;;;23.60;50.00;;;;;;5032497;28;20033;-69
2022/09/25 03:59:38;;;;;;;0.98;0.68;;;23.50;47.40;;;;;;5028296;28;20486;-71
2022/09/25 04:02:06;;;;;;;1.55;0.90;;;23.60;48.10;;;;;;5035764;28;20092;-71
2022/09/25 04:04:33;;;;;;;1.15;0.85;;;23.80;49.10;;;;;;5026478;28;20036;-69
2022/09/25 04:07:00;;;;;;;2.45;0.80;;;23.90;49.90;;;;;;5025059;28;20041;-70
2022/09/25 04:09:27;;;;;;;2.15;0.85;;;24.00;48.20;;;;;;5022845;28;20033;-69
2022/09/25 04:11:55;;;;;;;0.75;0.50;;;24.00;45.60;;;;;;5025676;28;20025;-68
2022/09/25 04:14:22;;;;;;;1.63;0.90;;;23.90;46.70;;;;;;5035111;28;20029;-68
2022/09/25 04:16:50;;;;;;;1.08;0.60;;;23.90;49.00;;;;;;5032730;28;21744;-69
2022/09/25 04:19:17;;;;;;;1.33;0.60;;;23.90;46.20;;;;;;5019336;28;20021;-69
2022/09/25 04:21:44;;;;;;;1.13;0.65;;;23.90;48.70;;;;;;5027718;28;20029;-70
2022/09/25 04:26:57;;;;;;;0.98;0.60;;;24.00;47.20;;;;;;5027977;28;20049;-72
2022/09/25 04:29:24;;;;;;;1.60;0.73;;;23.90;47.30;;;;;;5028240;28;20501;-72
2022/09/25 04:33:45;;;;;;;0.80;0.68;;;23.90;47.10;;;;;;5028382;28;20029;-71
2022/09/25 04:34:38;;;;;;;0.57;0.50;;;23.80;47.80;;;;;;5018681;28;20042;-71
2022/09/25 04:37:05;;;;;;;2.25;0.77;;;23.80;48.40;;;;;;5017545;28;20102;-70
2022/09/25 04:39:33;;;;;;;2.08;0.90;;;23.90;49.10;;;;;;5027539;28;20084;-70
2022/09/25 04:42:00;;;;;;;1.08;0.60;;;23.90;45.10;;;;;;5027627;28;20026;-72
2022/09/25 04:44:27;;;;;;;1.42;0.50;;;23.90;44.80;;;;;;5023543;28;20036;-71
2022/09/25 04:46:54;;;;;;;1.30;0.68;;;23.80;43.50;;;;;;5031267;28;20050;-71
2022/09/25 04:49:22;;;;;;;2.45;0.80;;;23.70;46.20;;;;;;5033745;28;20037;-71
2022/09/25 04:51:49;;;;;;;1.35;0.68;;;23.80;43.30;;;;;;5027172;28;20029;-71
2022/09/25 04:54:16;;;;;;;1.98;1.00;;;23.70;43.80;;;;;;5026833;28;20092;-71
2022/09/25 04:56:44;;;;;;;4.07;1.20;;;23.50;46.80;;;;;;5024026;28;20033;-71
2022/09/25 04:59:11;;;;;;;1.10;0.75;;;23.20;46.20;;;;;;5025142;28;20018;-72
2022/09/25 05:01:38;;;;;;;2.20;1.08;;;23.10;45.80;;;;;;5027169;28;20022;-71
2022/09/25 05:04:05;;;;;;;0.88;0.60;;;23.00;46.10;;;;;;5018878;28;20028;-71
2022/09/25 05:06:32;;;;;;;2.10;0.95;;;22.90;46.60;;;;;;5025984;28;20029;-72
2022/09/25 05:09:01;;;;;;;1.42;0.88;;;22.90;46.80;;;;;;5030430;28;20398;-71
2022/09/25 05:11:28;;;;;;;2.47;1.27;;;22.80;46.20;;;;;;5034066;28;20026;-72
2022/09/25 05:13:55;;;;;;;3.30;0.95;;;22.80;47.60;;;;;;5034519;28;20028;-72
2022/09/25 05:16:23;;;;;;;2.25;0.90;;;22.80;45.20;;;;;;5033156;28;20030;-71
2022/09/25 05:18:50;;;;;;;1.63;0.75;;;22.70;46.20;;;;;;5031622;28;20018;-72
2022/09/25 05:21:17;;;;;;;1.58;0.73;;;22.60;47.30;;;;;;5032744;28;20033;-71
2022/09/25 05:23:44;;;;;;;1.67;0.80;;;22.60;47.60;;;;;;5044042;28;20060;-70
2022/09/25 05:26:12;;;;;;;1.40;0.90;;;22.60;46.30;;;;;;5041313;28;20040;-70
2022/09/25 05:28:39;;;;;;;2.33;0.73;;;22.50;47.70;;;;;;5032558;28;20351;-71
2022/09/25 05:31:06;;;;;;;2.13;0.90;;;22.40;47.30;;;;;;5026999;28;20029;-72
2022/09/25 05:33:34;;;;;;;1.30;0.80;;;22.30;47.50;;;;;;5030924;28;20027;-72
2022/09/25 05:36:06;;;;;;;2.95;0.90;;;22.30;46.10;;;;;;5032802;28;20038;-71
2022/09/25 05:38:34;;;;;;;1.70;0.73;;;22.20;47.60;;;;;;5026760;28;20604;-72
2022/09/25 05:41:09;;;;;;;2.45;0.90;;;22.20;47.60;;;;;;5036591;28;20029;-71
2022/09/25 05:43:42;;;;;;;2.47;0.77;;;22.20;49.70;;;;;;5029926;28;20402;-71
2022/09/25 05:46:10;;;;;;;1.83;0.90;;;22.10;46.00;;;;;;5030952;28;20529;-72
2022/09/25 05:48:37;;;;;;;2.53;1.20;;;22.00;48.90;;;;;;5029566;28;20099;-71
2022/09/25 05:51:05;;;;;;;2.33;1.08;;;22.00;48.10;;;;;;5031709;28;20028;-70
2022/09/25 05:53:32;;;;;;;3.40;1.50;;;21.90;48.70;;;;;;5031784;28;20052;-70
2022/09/25 05:56:02;;;;;;;1.88;1.15;;;21.90;47.80;;;;;;5031096;28;20550;-71
2022/09/25 05:58:32;;;;;;;7.53;2.30;;;21.90;48.50;;;;;;5031593;28;20037;-71
2022/09/25 06:01:04;;;;;;;3.17;1.52;;;21.80;49.70;;;;;;5035199;28;20017;-71
2022/09/25 06:03:32;;;;;;;2.47;1.02;;;21.80;50.70;;;;;;5030923;28;20041;-72
2022/09/25 06:06:00;;;;;;;2.70;1.30;;;21.80;49.10;;;;;;5029159;28;20029;-71
2022/09/25 06:08:29;;;;;;;3.05;1.40;;;21.80;49.50;;;;;;5028698;28;20116;-70
2022/09/25 06:10:57;;;;;;;3.25;1.65;;;21.80;50.20;;;;;;5031207;28;20532;-73
2022/09/25 06:13:25;;;;;;;2.40;1.15;;;21.80;49.70;;;;;;5037617;28;20414;-70
2022/09/25 06:15:53;;;;;;;1.95;0.85;;;21.70;50.10;;;;;;5027658;28;20026;-69
2022/09/25 06:18:23;;;;;;;1.42;0.90;;;21.70;50.40;;;;;;5025411;28;20462;-70
2022/09/25 06:20:51;;;;;;;2.50;1.08;;;21.60;49.50;;;;;;5023142;28;20025;-71
2022/09/25 06:23:19;;;;;;;4.70;1.17;;;21.60;49.50;;;;;;5028901;28;20076;-73
2022/09/25 06:25:46;;;;;;;2.78;0.93;;;21.60;50.80;;;;;;5028817;28;20559;-73
2022/09/25 06:28:13;;;;;;;2.95;1.10;;;21.50;49.10;;;;;;5028439;28;20117;-73
2022/09/25 06:30:40;;;;;;;1.73;1.10;;;21.50;50.00;;;;;;5025348;28;20457;-72
2022/09/25 06:33:12;;;;;;;1.95;1.00;;;21.50;50.40;;;;;;5033836;28;20076;-73
2022/09/25 06:35:47;;;;;;;1.98;0.95;;;21.50;50.60;;;;;;5024684;28;20057;-73
2022/09/25 06:38:16;;;;;;;2.25;1.10;;;21.40;49.20;;;;;;5026264;28;20037;-73
2022/09/25 06:40:43;;;;;;;3.33;1.00;;;21.30;50.00;;;;;;5023471;28;20508;-73
2022/09/25 06:43:13;;;;;;;3.00;0.98;;;21.20;50.10;;;;;;5031827;28;20037;-70
2022/09/25 06:45:41;;;;;;;2.15;0.93;;;21.20;52.40;;;;;;5025640;28;20038;-71
2022/09/25 06:48:12;;;;;;;2.03;0.73;;;21.10;49.90;;;;;;5021022;28;20025;-68
2022/09/25 06:50:50;;;;;;;3.17;1.40;;;21.00;51.70;;;;;;5039167;28;20025;-69
2022/09/25 06:53:19;;;;;;;2.40;1.02;;;20.90;57.60;;;;;;5021909;28;20060;-75
2022/09/25 06:55:47;;;;;;;2.85;1.35;;;20.80;61.00;;;;;;5028464;28;20021;-65
2022/09/25 06:58:22;;;;;;;2.63;1.52;;;20.60;62.80;;;;;;5022389;28;20053;-63
2022/09/25 07:00:53;;;;;;;4.95;1.10;;;20.40;65.30;;;;;;5019129;28;20109;-63
2022/09/25 07:06:09;;;;;;;2.13;1.30;;;19.90;65.80;;;;;;5026963;28;20043;-62
2022/09/25 07:08:37;;;;;;;1.98;1.20;;;19.70;67.40;;;;;;5018970;28;20494;-63
2022/09/25 07:11:04;;;;;;;3.47;1.77;;;19.60;69.20;;;;;;5030561;28;20068;-62
2022/09/25 07:13:34;;;;;;;3.80;1.40;;;19.40;70.10;;;;;;5027263;28;20029;-61
2022/09/25 07:16:07;;;;;;;2.05;1.42;;;19.30;70.30;;;;;;5024399;28;20514;-64
2022/09/25 07:18:34;;;;;;;3.55;1.02;;;19.20;72.00;;;;;;5021917;28;20025;-61
2022/09/25 07:21:06;;;;;;;2.92;1.00;;;19.00;72.70;;;;;;5033333;28;20034;-64
2022/09/25 07:23:35;;;;;;;3.97;1.70;;;18.90;73.90;;;;;;5027608;28;20024;-62
2022/09/25 07:26:14;;;;;;;5.25;1.02;;;18.80;72.70;;;;;;5024017;28;20044;-62
2022/09/25 07:28:43;;;;;;;5.53;1.25;;;18.70;73.80;;;;;;5020896;28;20025;-65
2022/09/25 07:31:22;;;;;;;4.70;1.20;;;18.60;73.40;;;;;;5041868;28;20032;-64
2022/09/25 07:33:49;;;;;;;3.10;1.23;;;18.40;74.40;;;;;;5027599;28;20025;-66
2022/09/25 07:36:17;;;;;;;3.03;1.17;;;18.30;74.70;;;;;;5019917;28;20805;-66
2022/09/25 07:38:49;;;;;;;5.13;1.23;;;18.20;75.70;;;;;;5027681;28;20509;-66
2022/09/25 07:41:18;;;;;;;3.90;1.55;;;18.10;76.70;;;;;;5024318;28;20564;-66
2022/09/25 07:43:45;;;;;;;4.57;1.70;;;18.00;77.70;;;;;;5023135;28;20029;-66
2022/09/25 07:46:13;;;;;;;2.03;0.90;;;17.90;78.80;;;;;;5032154;28;20112;-67
2022/09/25 07:48:40;;;;;;;2.60;1.17;;;17.70;79.00;;;;;;5033603;28;20116;-66
2022/09/25 07:51:11;;;;;;;5.18;1.48;;;17.60;79.80;;;;;;5024441;28;20033;-65
2022/09/25 07:53:40;;;;;;;3.28;1.35;;;17.60;81.10;;;;;;5023540;28;20143;-65
2022/09/25 07:56:08;;;;;;;2.97;1.38;;;17.50;80.30;;;;;;5027468;28;20036;-67
2022/09/25 07:58:35;;;;;;;5.32;1.15;;;17.40;81.20;;;;;;5025673;28;20151;-67
2022/09/25 08:01:05;;;;;;;2.00;1.27;;;17.30;81.10;;;;;;5029710;28;20486;-67
2022/09/25 08:03:33;;;;;;;4.18;1.35;;;17.30;81.70;;;;;;5028350;28;20052;-65
2022/09/25 08:06:08;;;;;;;2.65;1.35;;;17.20;81.00;;;;;;5026997;28;20083;-66
2022/09/25 08:08:35;;;;;;;4.25;1.38;;;17.10;81.80;;;;;;5018838;28;20034;-66
2022/09/25 08:11:14;;;;;;;4.82;1.00;;;17.00;82.70;;;;;;5027741;28;20055;-67
2022/09/25 08:13:42;;;;;;;2.63;1.58;;;16.90;83.30;;;;;;5023419;28;20368;-67
2022/09/25 08:16:15;;;;;;;4.25;2.05;;;16.80;83.80;;;;;;5024877;28;20449;-66
2022/09/25 08:18:45;;;;;;;3.90;1.90;;;16.80;83.50;;;;;;5025666;28;20026;-66
2022/09/25 08:21:14;;;;;;;7.72;3.50;;;16.80;83.90;;;;;;5026903;28;20037;-66
2022/09/25 08:23:42;;;;;;;5.50;3.40;;;16.70;84.00;;;;;;5024432;28;20612;-66
2022/09/25 08:26:10;;;;;;;5.82;2.42;;;16.60;84.70;;;;;;5025990;28;20041;-66
2022/09/25 08:28:37;;;;;;;3.70;1.98;;;16.60;84.90;;;;;;5025059;28;20053;-67
2022/09/25 08:31:04;;;;;;;4.07;1.88;;;16.60;85.30;;;;;;5037903;28;20041;-67
2022/09/25 08:33:33;;;;;;;2.97;1.45;;;16.50;85.20;;;;;;5026429;28;20052;-67
2022/09/25 08:36:03;;;;;;;3.20;1.60;;;16.50;85.30;;;;;;5030860;28;20506;-67
2022/09/25 08:38:33;;;;;;;5.63;2.05;;;16.50;85.50;;;;;;5025211;28;20041;-67
2022/09/25 08:41:08;;;;;;;3.25;1.27;;;16.50;85.70;;;;;;5031316;28;20490;-67
2022/09/25 08:44:00;;;;;;;3.80;0.90;;;16.40;85.90;;;;;;5020720;28;20072;-67
2022/09/25 08:50:03;;;;;;;1.73;0.88;;;16.40;86.60;;;;;;5026253;28;20076;-65
2022/09/25 08:52:31;;;;;;;3.05;1.50;;;16.30;87.60;;;;;;5029240;28;20068;-67
2022/09/25 08:54:59;;;;;;;4.88;1.45;;;16.20;88.30;;;;;;5031618;28;20027;-66
2022/09/25 08:57:34;;;;;;;5.53;1.40;;;16.20;89.10;;;;;;5025638;28;20025;-66
2022/09/25 09:00:21;;;;;;;2.83;1.50;;;16.20;89.60;;;;;;5026094;28;20101;-67
2022/09/25 09:02:57;;;;;;;10.40;4.90;;;16.10;90.20;;;;;;5027719;28;20464;-65
2022/09/25 09:05:31;;;;;;;8.15;3.47;;;16.00;90.30;;;;;;5017811;28;20022;-65
2022/09/25 09:08:24;;;;;;;8.20;4.60;;;16.00;90.30;;;;;;5024685;28;20084;-66
2022/09/25 09:10:57;;;;;;;10.02;4.35;;;15.90;90.50;;;;;;5025044;28;20144;-66
2022/09/25 09:13:53;;;;;;;14.90;7.13;;;15.80;90.50;;;;;;5029939;28;20608;-66
2022/09/25 09:16:31;;;;;;;9.27;5.07;;;15.80;90.70;;;;;;5023750;28;20664;-66
2022/09/25 09:19:03;;;;;;;8.55;2.28;;;15.60;91.40;;;;;;5022286;28;20030;-63
2022/09/25 09:21:46;;;;;;;8.48;4.32;;;15.60;91.60;;;;;;5027170;28;20031;-66
2022/09/25 09:24:55;;;;;;;5.25;1.50;;;15.40;92.00;;;;;;5031147;28;20030;-66
2022/09/25 09:27:54;;;;;;;2.53;1.50;;;15.40;92.30;;;;;;5019503;28;20045;-67
2022/09/25 09:30:36;;;;;;;3.33;1.77;;;15.40;92.60;;;;;;5024408;28;20742;-67
2022/09/25 09:33:14;;;;;;;3.08;1.65;;;15.30;92.80;;;;;;5025611;28;20036;-69
2022/09/25 09:36:06;;;;;;;4.13;1.80;;;15.20;93.10;;;;;;5031853;28;20041;-67
2022/09/25 09:38:48;;;;;;;4.22;1.45;;;15.20;93.20;;;;;;5024062;28;20029;-68
2022/09/25 09:41:20;;;;;;;5.40;2.00;;;15.10;93.50;;;;;;5022338;28;20138;-67
2022/09/25 09:44:14;;;;;;;3.75;1.60;;;15.10;93.50;;;;;;5017088;28;20486;-68
2022/09/25 09:46:55;;;;;;;4.88;1.40;;;15.10;93.40;;;;;;5020317;28;20124;-68
2022/09/25 09:49:54;;;;;;;5.18;1.52;;;15.10;93.20;;;;;;5011016;28;20493;-68
2022/09/25 09:52:43;;;;;;;3.58;1.95;;;15.10;93.40;;;;;;5021567;28;20047;-67
2022/09/25 09:55:35;;;;;;;3.92;1.85;;;15.10;93.70;;;;;;5022060;28;20040;-67
2022/09/25 09:58:09;;;;;;;6.93;2.45;;;15.10;93.90;;;;;;5019266;28;20037;-67
2022/09/25 10:00:38;;;;;;;5.07;2.35;;;15.00;93.90;;;;;;5022677;28;20060;-67
2022/09/25 10:03:13;;;;;;;3.42;1.70;;;15.00;94.10;;;;;;5025627;28;20079;-67
2022/09/25 10:05:52;;;;;;;5.45;2.50;;;15.00;94.30;;;;;;5026038;28;20087;-67
2022/09/25 10:08:19;;;;;;;8.73;2.25;;;14.90;94.30;;;;;;5025648;28;20032;-68
2022/09/25 10:10:52;;;;;;;6.38;2.15;;;14.80;94.80;;;;;;5024650;28;20386;-67
2022/09/25 10:13:22;;;;;;;6.68;2.13;;;14.70;94.90;;;;;;5024938;28;20123;-67
2022/09/25 10:16:10;;;;;;;4.00;1.98;;;14.60;95.30;;;;;;5019430;28;20030;-67
2022/09/25 10:18:49;;;;;;;7.30;2.05;;;14.50;95.40;;;;;;5024122;28;20026;-66
2022/09/25 10:21:20;;;;;;;8.10;2.55;;;14.40;95.70;;;;;;5024020;28;20033;-67
2022/09/25 10:23:52;;;;;;;4.47;2.47;;;14.30;95.90;;;;;;5024267;28;20027;-68
2022/09/25 10:26:37;;;;;;;4.18;1.75;;;14.10;96.30;;;;;;5021777;28;20036;-67
2022/09/25 10:29:20;;;;;;;6.88;2.10;;;14.00;96.60;;;;;;5023992;28;20036;-68
2022/09/25 10:31:47;;;;;;;5.57;2.15;;;13.90;96.90;;;;;;5024424;28;20782;-68
2022/09/25 10:34:22;;;;;;;4.68;2.30;;;13.80;96.90;;;;;;5021638;28;20026;-68
2022/09/25 10:36:52;;;;;;;5.15;2.20;;;13.70;97.10;;;;;;5020804;28;20664;-68
2022/09/25 10:39:31;;;;;;;5.85;1.88;;;13.60;97.70;;;;;;5022590;28;20060;-68
2022/09/25 10:42:00;;;;;;;6.63;1.88;;;13.50;98.00;;;;;;5024472;28;20666;-67
2022/09/25 10:44:38;;;;;;;9.05;2.10;;;13.50;98.20;;;;;;5026965;28;20112;-68
2022/09/25 10:50:25;;;;;;;5.28;1.60;;;13.30;98.50;;;;;;5021833;28;20115;-66
2022/09/25 10:52:58;;;;;;;2.88;1.65;;;13.30;98.60;;;;;;5021825;28;20112;-66
2022/09/25 10:55:42;;;;;;;3.58;1.60;;;13.20;98.60;;;;;;5024081;28;20025;-66
2022/09/25 10:58:14;;;;;;;6.40;2.03;;;13.10;98.80;;;;;;5022956;28;20061;-66
2022/09/25 11:00:51;;;;;;;5.72;2.05;;;13.10;99.10;;;;;;5023349;28;20625;-66
2022/09/25 11:03:33;;;;;;;7.88;2.08;;;13.00;99.30;;;;;;5022699;28;20064;-69
2022/09/25 11:06:20;;;;;;;4.97;1.88;;;12.90;99.60;;;;;;5024296;28;20045;-69
2022/09/25 11:09:12;;;;;;;7.35;1.92;;;12.80;99.90;;;;;;5022252;28;20025;-69
2022/09/25 11:11:40;;;;;;;3.42;2.10;;;12.80;99.90;;;;;;5031557;28;20113;-68
2022/09/25 11:14:33;;;;;;;5.68;2.08;;;12.70;99.90;;;;;;5025278;28;20034;-69
2022/09/25 11:17:07;;;;;;;6.35;1.70;;;12.70;99.90;;;;;;5021475;28;20029;-70
2022/09/25 11:19:35;;;;;;;5.55;1.90;;;12.70;99.90;;;;;;5027493;28;20486;-70
2022/09/25 11:22:09;;;;;;;8.00;2.15;;;12.60;99.90;;;;;;5025128;28;20060;-70
2022/09/25 11:24:52;;;;;;;2.75;1.90;;;12.50;99.90;;;;;;5022065;28;20028;-70
2022/09/25 11:27:39;;;;;;;2.92;1.90;;;12.50;99.90;;;;;;5024395;28;20045;-67
2022/09/25 11:30:15;;;;;;;4.38;1.75;;;12.40;99.90;;;;;;5026505;28;20083;-69
2022/09/25 11:33:01;;;;;;;6.13;2.08;;;12.30;99.90;;;;;;5023486;28;20033;-67
2022/09/25 11:35:55;;;;;;;9.68;3.58;;;12.30;99.90;;;;;;5022785;28;20041;-67
2022/09/25 11:41:55;;;;;;;4.03;2.08;;;12.30;99.90;;;;;;5028332;28;20091;-67
2022/09/25 11:44:56;;;;;;;4.00;2.15;;;12.30;99.90;;;;;;5028615;28;20077;-67
2022/09/25 11:47:39;;;;;;;3.55;2.00;;;12.30;99.90;;;;;;5031652;28;20367;-67
2022/09/25 11:50:16;;;;;;;5.80;2.75;;;12.30;99.90;;;;;;5034778;28;20482;-67
2022/09/25 11:53:04;;;;;;;6.88;2.47;;;12.30;99.90;;;;;;5026624;28;20032;-68
2022/09/25 11:55:40;;;;;;;12.02;3.65;;;12.40;99.90;;;;;;5018343;28;20037;-66
2022/09/25 11:58:08;;;;;;;9.80;2.78;;;12.40;99.90;;;;;;5026727;28;20778;-68
2022/09/25 12:00:43;;;;;;;9.57;3.22;;;12.40;99.90;;;;;;5025975;28;20121;-68
2022/09/25 12:03:34;;;;;;;8.48;3.63;;;12.40;99.90;;;;;;5029417;28;20120;-67
2022/09/25 12:06:20;;;;;;;9.55;3.20;;;12.40;99.90;;;;;;5025002;28;20068;-65
2022/09/25 12:09:06;;;;;;;6.60;3.78;;;12.30;99.90;;;;;;5021593;28;20037;-67
2022/09/25 12:11:44;;;;;;;5.55;2.80;;;12.30;99.90;;;;;;5018291;28;20021;-68
2022/09/25 12:14:19;;;;;;;7.90;2.97;;;12.20;99.90;;;;;;5024983;28;20029;-68
2022/09/25 12:16:45;;;;;;;;;;;12.10;99.90;;;;;;5020428;28;20040;-67
2022/09/25 12:19:44;;;;;;;8.43;2.38;;;12.00;99.90;;;;;;5027385;28;20015;-68
2022/09/25 12:22:21;;;;;;;7.32;2.28;;;12.00;99.90;;;;;;5018591;28;20046;-68
2022/09/25 12:25:04;;;;;;;5.03;2.67;;;11.90;99.90;;;;;;5027317;28;20075;-68
2022/09/25 12:27:46;;;;;;;6.20;2.58;;;11.90;99.90;;;;;;5023988;28;20821;-67
2022/09/25 12:30:40;;;;;;;8.23;3.65;;;11.80;99.90;;;;;;5031290;28;20052;-68
2022/09/25 12:33:33;;;;;;;11.00;3.88;;;11.70;99.90;;;;;;4985265;28;20046;-67
2022/09/25 12:36:16;;;;;;;10.80;4.05;;;11.70;99.90;;;;;;5028057;28;20048;-67
2022/09/25 12:38:43;;;;;;;7.72;3.78;;;11.60;99.90;;;;;;5024696;28;20108;-68
2022/09/25 12:41:32;;;;;;;7.35;4.30;;;11.60;99.90;;;;;;5027503;28;20028;-67
2022/09/25 12:44:17;;;;;;;8.75;3.40;;;11.60;99.90;;;;;;5032526;28;20099;-67
2022/09/25 12:46:49;;;;;;;8.25;2.97;;;11.60;99.90;;;;;;5036764;28;20041;-67
2022/09/25 12:49:43;;;;;;;7.97;3.60;;;11.70;99.90;;;;;;5031765;28;20312;-67
2022/09/25 12:52:38;;;;;;;5.10;2.80;;;11.70;99.90;;;;;;5017628;28;20074;-67
2022/09/25 12:55:22;;;;;;;6.18;2.92;;;11.70;99.90;;;;;;5029211;28;20486;-66
2022/09/25 12:57:59;;;;;;;8.40;3.60;;;11.80;99.90;;;;;;5023582;28;20021;-67
2022/09/25 13:00:30;;;;;;;5.65;3.35;;;11.80;99.90;;;;;;5027428;28;20040;-68
2022/09/25 13:03:38;;;;;;;8.52;3.85;;;11.80;99.90;;;;;;5025551;28;20034;-67
2022/09/25 13:06:16;;;;;;;6.57;3.85;;;11.80;99.90;;;;;;4992694;28;20426;-67
2022/09/25 13:09:06;;;;;;;11.93;4.88;;;11.80;99.90;;;;;;5013143;28;20056;-67
2022/09/25 13:11:44;;;;;;;9.50;4.35;;;11.80;99.90;;;;;;5025020;28;20124;-66
2022/09/25 13:14:41;;;;;;;8.98;3.95;;;11.70;99.90;;;;;;5029622;28;20487;-68
2022/09/25 13:17:14;;;;;;;7.93;4.30;;;11.70;99.90;;;;;;5029174;28;20025;-68
2022/09/25 13:19:42;;;;;;;11.88;5.22;;;11.60;99.90;;;;;;5025186;28;20029;-67
2022/09/25 13:22:23;;;;;;;15.75;7.15;;;11.60;99.90;;;;;;5027228;28;20061;-67
2022/09/25 13:25:12;;;;;;;11.13;8.57;;;11.60;99.90;;;;;;5024299;28;20018;-67
2022/09/25 13:27:45;;;;;;;13.73;7.97;;;11.50;99.90;;;;;;5032058;28;20446;-67
2022/09/25 13:30:30;;;;;;;11.13;6.40;;;11.50;99.90;;;;;;5029158;28;20377;-68
2022/09/25 13:33:02;;;;;;;8.90;5.07;;;11.50;99.90;;;;;;5039663;28;20053;-67
2022/09/25 13:35:35;;;;;;;12.27;5.22;;;11.40;99.90;;;;;;5039981;28;20045;-66
2022/09/25 13:41:10;;;;;;;7.43;4.20;;;11.40;99.90;;;;;;5032204;28;20064;-67
2022/09/25 13:43:37;;;;;;;7.32;3.80;;;11.30;99.90;;;;;;5042926;28;20530;-68
2022/09/25 13:46:18;;;;;;;5.75;3.83;;;11.20;99.90;;;;;;5034731;28;20040;-68
2022/09/25 13:48:46;;;;;;;8.23;3.75;;;11.10;99.90;;;;;;5042673;28;20080;-67